METAR Data
IDs: Format: Raw Decoded Include TAF

Data at: 2110 UTC 17 Jun 2019

KERV 172055Z AUTO 00000KT 10SM CLR 30/20 A2996 RMK AO2 T03000204
KERV 172035Z AUTO 00000KT 10SM CLR 29/20 A2996 RMK AO2 T02930200
KERV 172015Z AUTO 12004KT 10SM CLR 29/20 A2996 RMK AO2 T02900199
KERV 171955Z AUTO 24004KT 10SM CLR 29/20 A2997 RMK AO2 T02900202
KERV 171935Z AUTO 00000KT 10SM CLR 28/20 A2998 RMK AO2 T02820196
KERV 171915Z AUTO 00000KT 10SM CLR 28/19 A2998 RMK AO2 T02770191
KERV 171855Z AUTO 00000KT 10SM CLR 28/19 A2999 RMK AO2 T02750191
KERV 171835Z AUTO 00000KT 10SM CLR 28/20 A3000 RMK AO2 T02750196
KERV 171815Z AUTO 12007KT 10SM CLR 26/20 A3000 RMK AO2 T02640195
KERV 171755Z AUTO 15005KT 10SM CLR 26/19 A3001 RMK AO2 60055 T02610192 10261 20176
KERV 171735Z AUTO 08006KT 10SM CLR 25/19 A3001 RMK AO2 T02470191
KERV 171715Z AUTO 06005KT 10SM CLR 24/19 A2999 RMK AO2 T02370194

KT82 172055Z AUTO 00000KT 10SM CLR 28/19 A2996 RMK AO2 T02800187
KT82 172035Z AUTO 00000KT 10SM CLR 28/19 A2997 RMK AO2 T02800186
KT82 172015Z AUTO 30003KT 10SM CLR 27/19 A2997 RMK AO2 T02730186
KT82 171955Z AUTO 13004KT 10SM CLR 28/19 A2998 RMK AO2 T02760192
KT82 171935Z AUTO 00000KT 10SM CLR 27/19 A2998 RMK AO2 T02700188
KT82 171915Z AUTO 00000KT 10SM CLR 27/19 A2999 RMK AO2 T02660187
KT82 171855Z AUTO 09004KT 7SM CLR 26/18 A2999 RMK AO2 T02630184
KT82 171835Z AUTO 11005KT 10SM CLR 26/18 A2999 RMK AO2 T02560183
KT82 171815Z AUTO 14004KT 10SM CLR 25/18 A3000 RMK AO2 T02470180
KT82 171755Z AUTO 00000KT 10SM CLR 24/18 A3001 RMK AO2 T02440178 10244 20182
KT82 171735Z AUTO 11003KT 10SM CLR 24/18 A3000 RMK AO2 T02410175
KT82 171715Z AUTO 12004KT 10SM CLR 23/18 A2999 RMK AO2 T02320175

KJCT 172051Z AUTO 12009KT 10SM CLR 32/19 A2995 RMK AO2 SLP105 T03170194 58013 PNO $
KJCT 171951Z AUTO 09006KT 10SM CLR 31/19 A2997 RMK AO2 SLP112 T03060189 PNO $
KJCT 171851Z AUTO 07006KT 10SM CLR 29/19 A2998 RMK AO2 SLP115 T02940194 PNO $
KJCT 171751Z AUTO 12005KT 10SM CLR 27/20 A2999 RMK AO2 SLP120 T02670200 10267 20183 50010 PNO $

K5C1 172055Z AUTO 00000KT 10SM CLR 28/19 A2996 RMK AO1
K5C1 172035Z AUTO 24004KT 10SM CLR 28/18 A2996 RMK AO1
K5C1 172015Z AUTO 32003KT 10SM CLR 27/18 A2997 RMK AO1
K5C1 171955Z AUTO 34003KT 10SM CLR 27/18 A2997 RMK AO1
K5C1 171935Z AUTO 00000KT 10SM CLR 27/18 A2998 RMK AO1
K5C1 171915Z AUTO 00000KT 10SM CLR 26/19 A2998 RMK AO1
K5C1 171855Z AUTO 00000KT 10SM CLR 26/20 A2999 RMK AO1
K5C1 171835Z AUTO 00000KT 10SM SCT018 24/19 A3000 RMK AO1
K5C1 171815Z AUTO 00000KT 10SM BKN018 23/20 A3001 RMK AO1
K5C1 171755Z AUTO 00000KT 10SM SCT018 22/19 A3001 RMK AO1
K5C1 171735Z AUTO 12005KT 10SM BKN014 22/20 A3001 RMK AO1
K5C1 171715Z AUTO 17009KT 10SM SCT013 22/20 A2996 RMK AO1

KHDO 172051Z AUTO 17004KT 10SM CLR 31/21 A2992 RMK AO2 SLP116 T03060206 58007
KHDO 171951Z AUTO 14005KT 10SM CLR 31/21 A2993 RMK AO2 SLP121 T03060206
KHDO 171851Z AUTO 03010KT 10SM CLR 28/20 A2996 RMK AO2 SLP129 T02830200
KHDO 171751Z AUTO 15008KT 10SM FEW016 25/20 A2994 RMK AO2 RAE01 TSE04 SLP125 P0000 60010 T02500200 10250 20206 58003

KUVA 172058Z AUTO 15008KT 10SM SCT046 32/21 A2991 RMK AO2
KUVA 172038Z AUTO 14008KT 10SM SCT042 31/22 A2992 RMK AO2
KUVA 172020Z AUTO 11008KT 10SM BKN040 31/22 A2992 RMK AO2
KUVA 171959Z AUTO 15006KT 10SM SCT040 31/22 A2993 RMK AO2
KUVA 171938Z AUTO 11008KT 10SM CLR 31/22 A2993 RMK AO2
KUVA 171918Z AUTO 15006KT 10SM CLR 31/22 A2994 RMK AO2
KUVA 171858Z AUTO 18010G14KT 10SM CLR 30/22 A2994 RMK AO2
KUVA 171838Z AUTO 17009G14KT 10SM CLR 30/21 A2994 RMK AO2
KUVA 171818Z AUTO 19013G16KT 10SM CLR 29/21 A2993 RMK AO2
KUVA 171758Z AUTO 17008G14KT 10SM CLR 28/22 A2994 RMK AO2
KUVA 171738Z AUTO 16009KT 10SM CLR 28/22 A2994 RMK AO2
KUVA 171719Z AUTO 16004KT 10SM CLR 26/21 A2996 RMK AO2

KSAT 172051Z VRB04KT 10SM FEW120 FEW250 31/20 A2992 RMK AO2 SLP114 T03060200 56020
KSAT 171951Z VRB04KT 10SM FEW120 FEW250 29/19 A2993 RMK AO2 SLP118 T02940189
KSAT 171851Z 34007KT 10SM FEW020 SCT120 SCT250 28/20 A2995 RMK AO2 SLP126 T02780200
KSAT 171751Z 34010KT 10SM SCT015 BKN120 OVC250 25/19 A2998 RMK AO2 PRESRR SLP136 60006 T02500194 10250 20206 53008
KSAT 171728Z 00000KT 10SM SCT014 BKN120 OVC250 23/19 A2996 RMK AO2 T02330194

KSSF 172053Z 31003KT 10SM CLR 31/17 A2989 RMK AO2 SLP109 T03110167 58008
KSSF 171953Z VRB03KT 10SM CLR 30/18 A2990 RMK AO2 SLP115 T03000178
KSSF 171853Z 00000KT 10SM CLR 28/18 A2992 RMK AO2 SLP124 T02780183
KSSF 171753Z 10004KT 10SM CLR 25/19 A2991 RMK AO2 SLP121 60107 T02500189 10256 20206 50013